sensor_id;sensor_type;location;lat;lon;timestamp;pressure;altitude;pressure_sealevel;temperature;humidity
86120;BME280;76781;52.434;13.488;2024-02-21T08:58:16;101410.38;;;21.39;39.75
86120;BME280;76781;52.434;13.488;2024-02-21T09:00:41;101407.44;;;21.77;39.25
86120;BME280;76781;52.434;13.488;2024-02-21T09:03:07;101408.63;;;21.93;39.36
86120;BME280;76781;52.434;13.488;2024-02-21T09:05:32;101415.59;;;21.97;38.71
86120;BME280;76781;52.434;13.488;2024-02-21T09:08:00;101410.63;;;22.00;38.48
86120;BME280;76781;52.434;13.488;2024-02-21T09:10:25;101408.75;;;22.19;38.54
86120;BME280;76781;52.434;13.488;2024-02-21T09:12:51;101406.31;;;22.34;38.14
86120;BME280;76781;52.434;13.488;2024-02-21T09:15:16;101402.31;;;22.90;38.91
86120;BME280;76781;52.434;13.488;2024-02-21T09:17:41;101397.03;;;22.87;37.79
86120;BME280;76781;52.434;13.488;2024-02-21T09:20:09;101408.66;;;22.64;38.19
86120;BME280;76781;52.434;13.488;2024-02-21T09:22:37;101401.47;;;22.79;38.09
86120;BME280;76781;52.434;13.488;2024-02-21T09:25:05;101393.44;;;22.68;37.98
86120;BME280;76781;52.434;13.488;2024-02-21T09:27:31;101405.59;;;22.75;38.33
86120;BME280;76781;52.434;13.488;2024-02-21T09:29:56;101397.16;;;22.77;38.46
86120;BME280;76781;52.434;13.488;2024-02-21T09:32:22;101399.75;;;22.78;38.63
86120;BME280;76781;52.434;13.488;2024-02-21T09:34:47;101394.53;;;22.75;39.06
86120;BME280;76781;52.434;13.488;2024-02-21T09:37:13;101394.47;;;22.67;39.04
86120;BME280;76781;52.434;13.488;2024-02-21T09:39:38;101384.50;;;22.57;38.79
86120;BME280;76781;52.434;13.488;2024-02-21T09:42:05;101386.47;;;22.64;38.73
86120;BME280;76781;52.434;13.488;2024-02-21T09:44:37;101386.97;;;22.60;38.56
86120;BME280;76781;52.434;13.488;2024-02-21T09:47:07;101367.63;;;22.68;38.51
86120;BME280;76781;52.434;13.488;2024-02-21T09:49:35;101370.31;;;22.77;38.37
86120;BME280;76781;52.434;13.488;2024-02-21T09:52:05;101379.00;;;22.83;38.48
86120;BME280;76781;52.434;13.488;2024-02-21T09:54:32;101369.63;;;22.84;38.32
86120;BME280;76781;52.434;13.488;2024-02-21T09:57:00;101371.53;;;23.01;38.03
86120;BME280;76781;52.434;13.488;2024-02-21T09:59:27;101377.13;;;23.09;37.79
86120;BME280;76781;52.434;13.488;2024-02-21T10:01:53;101378.34;;;23.15;37.76
86120;BME280;76781;52.434;13.488;2024-02-21T10:04:20;101382.66;;;23.09;38.05
86120;BME280;76781;52.434;13.488;2024-02-21T10:06:45;101379.38;;;22.88;38.62
86120;BME280;76781;52.434;13.488;2024-02-21T10:09:22;101370.22;;;22.69;38.26
86120;BME280;76781;52.434;13.488;2024-02-21T10:11:54;101388.28;;;22.73;37.85
86120;BME280;76781;52.434;13.488;2024-02-21T10:14:20;101383.34;;;22.85;37.39
86120;BME280;76781;52.434;13.488;2024-02-21T10:16:48;101385.97;;;22.87;37.97
86120;BME280;76781;52.434;13.488;2024-02-21T10:19:18;101374.22;;;22.93;38.23
86120;BME280;76781;52.434;13.488;2024-02-21T10:21:43;101384.31;;;22.94;37.93
86120;BME280;76781;52.434;13.488;2024-02-21T10:24:12;101381.53;;;22.94;37.92
86120;BME280;76781;52.434;13.488;2024-02-21T10:26:37;101374.09;;;22.94;38.67
86120;BME280;76781;52.434;13.488;2024-02-21T10:29:03;101382.06;;;22.97;37.83
86120;BME280;76781;52.434;13.488;2024-02-21T10:31:28;101380.78;;;23.52;37.24
86120;BME280;76781;52.434;13.488;2024-02-21T10:33:58;101381.38;;;23.29;37.72
86120;BME280;76781;52.434;13.488;2024-02-21T10:36:24;101379.44;;;23.22;37.90
86120;BME280;76781;52.434;13.488;2024-02-21T10:38:51;101381.84;;;23.17;38.06
86120;BME280;76781;52.434;13.488;2024-02-21T10:41:19;101379.03;;;23.09;37.98
86120;BME280;76781;52.434;13.488;2024-02-21T10:43:49;101375.00;;;23.03;37.48
86120;BME280;76781;52.434;13.488;2024-02-21T10:46:18;101374.47;;;22.99;38.66
86120;BME280;76781;52.434;13.488;2024-02-21T10:48:45;101383.47;;;23.01;38.18
86120;BME280;76781;52.434;13.488;2024-02-21T10:51:19;101371.16;;;22.96;37.92
86120;BME280;76781;52.434;13.488;2024-02-21T10:54:13;101365.41;;;22.97;38.13
86120;BME280;76781;52.434;13.488;2024-02-21T10:56:38;101369.06;;;22.98;38.13
86120;BME280;76781;52.434;13.488;2024-02-21T10:59:06;101357.97;;;22.98;38.12
86120;BME280;76781;52.434;13.488;2024-02-21T11:01:32;101355.25;;;23.06;37.84
86120;BME280;76781;52.434;13.488;2024-02-21T11:04:08;101359.75;;;23.07;37.80
86120;BME280;76781;52.434;13.488;2024-02-21T11:06:35;101360.78;;;23.06;37.85
86120;BME280;76781;52.434;13.488;2024-02-21T11:09:10;101352.56;;;23.22;37.30
86120;BME280;76781;52.434;13.488;2024-02-21T11:11:40;101351.66;;;23.14;37.13
86120;BME280;76781;52.434;13.488;2024-02-21T11:14:08;101341.06;;;23.09;37.25
86120;BME280;76781;52.434;13.488;2024-02-21T11:16:41;101332.75;;;23.09;37.53
86120;BME280;76781;52.434;13.488;2024-02-21T11:19:25;101334.47;;;23.10;37.67
86120;BME280;76781;52.434;13.488;2024-02-21T11:21:52;101326.56;;;23.23;37.34
86120;BME280;76781;52.434;13.488;2024-02-21T11:24:31;101320.09;;;23.49;36.95
86120;BME280;76781;52.434;13.488;2024-02-21T11:27:14;101314.91;;;23.62;36.88
86120;BME280;76781;52.434;13.488;2024-02-21T11:29:54;101297.94;;;24.79;34.49
86120;BME280;76781;52.434;13.488;2024-02-21T11:32:20;101293.41;;;24.87;34.17
86120;BME280;76781;52.434;13.488;2024-02-21T11:34:56;101295.03;;;25.20;33.63
86120;BME280;76781;52.434;13.488;2024-02-21T11:37:23;101286.88;;;26.79;30.97
86120;BME280;76781;52.434;13.488;2024-02-21T11:39:50;101282.69;;;27.13;30.13
86120;BME280;76781;52.434;13.488;2024-02-21T11:42:15;101282.88;;;25.84;32.13
86120;BME280;76781;52.434;13.488;2024-02-21T11:44:40;101280.44;;;24.63;35.10
86120;BME280;76781;52.434;13.488;2024-02-21T11:47:08;101279.53;;;24.70;34.53
86120;BME280;76781;52.434;13.488;2024-02-21T11:49:38;101275.44;;;24.50;35.31
86120;BME280;76781;52.434;13.488;2024-02-21T11:52:04;101263.78;;;23.97;36.23
86120;BME280;76781;52.434;13.488;2024-02-21T11:54:31;101255.56;;;24.69;34.12
86120;BME280;76781;52.434;13.488;2024-02-21T11:56:56;101252.34;;;24.09;35.67
86120;BME280;76781;52.434;13.488;2024-02-21T11:59:22;101245.94;;;24.00;36.06
86120;BME280;76781;52.434;13.488;2024-02-21T12:01:48;101244.03;;;24.00;35.91
86120;BME280;76781;52.434;13.488;2024-02-21T12:04:15;101239.16;;;23.94;36.17
86120;BME280;76781;52.434;13.488;2024-02-21T12:06:44;101237.94;;;23.89;36.35
86120;BME280;76781;52.434;13.488;2024-02-21T12:09:09;101232.56;;;23.87;36.41
86120;BME280;76781;52.434;13.488;2024-02-21T12:11:35;101234.66;;;23.85;36.54
86120;BME280;76781;52.434;13.488;2024-02-21T12:14:00;101221.78;;;23.92;36.67
86120;BME280;76781;52.434;13.488;2024-02-21T12:16:27;101222.31;;;23.88;36.26
86120;BME280;76781;52.434;13.488;2024-02-21T12:18:54;101215.41;;;23.75;36.11
86120;BME280;76781;52.434;13.488;2024-02-21T12:21:24;101212.25;;;23.78;36.11
86120;BME280;76781;52.434;13.488;2024-02-21T12:23:49;101209.38;;;25.62;39.76
86120;BME280;76781;52.434;13.488;2024-02-21T12:26:14;101201.81;;;25.47;33.20
86120;BME280;76781;52.434;13.488;2024-02-21T12:28:40;101194.41;;;25.17;33.79
86120;BME280;76781;52.434;13.488;2024-02-21T12:31:05;101185.47;;;24.90;34.07
86120;BME280;76781;52.434;13.488;2024-02-21T12:33:31;101178.22;;;24.81;34.30
86120;BME280;76781;52.434;13.488;2024-02-21T12:35:56;101177.34;;;24.80;34.28
86120;BME280;76781;52.434;13.488;2024-02-21T12:38:22;101174.97;;;24.61;34.41
86120;BME280;76781;52.434;13.488;2024-02-21T12:40:47;101180.53;;;24.61;34.42
86120;BME280;76781;52.434;13.488;2024-02-21T12:43:12;101179.16;;;24.57;34.60
86120;BME280;76781;52.434;13.488;2024-02-21T12:45:38;101186.16;;;24.45;35.00
86120;BME280;76781;52.434;13.488;2024-02-21T12:48:03;101192.94;;;24.42;35.00
86120;BME280;76781;52.434;13.488;2024-02-21T12:50:30;101174.53;;;24.33;35.10
86120;BME280;76781;52.434;13.488;2024-02-21T12:52:57;101172.28;;;24.37;34.94
86120;BME280;76781;52.434;13.488;2024-02-21T12:55:23;101168.97;;;24.33;35.42
86120;BME280;76781;52.434;13.488;2024-02-21T12:57:49;101174.00;;;24.29;35.56
86120;BME280;76781;52.434;13.488;2024-02-21T13:00:15;101172.66;;;24.25;35.34
86120;BME280;76781;52.434;13.488;2024-02-21T13:02:40;101166.72;;;24.20;35.60
86120;BME280;76781;52.434;13.488;2024-02-21T13:05:06;101161.22;;;24.12;35.46
86120;BME280;76781;52.434;13.488;2024-02-21T13:07:33;101155.81;;;24.11;35.42
86120;BME280;76781;52.434;13.488;2024-02-21T13:09:58;101153.41;;;24.08;35.24
86120;BME280;76781;52.434;13.488;2024-02-21T13:12:24;101163.47;;;24.09;35.10
86120;BME280;76781;52.434;13.488;2024-02-21T13:14:51;101154.09;;;24.01;34.98
86120;BME280;76781;52.434;13.488;2024-02-21T13:17:17;101158.13;;;23.99;35.07
86120;BME280;76781;52.434;13.488;2024-02-21T13:19:42;101155.50;;;23.97;34.96
86120;BME280;76781;52.434;13.488;2024-02-21T13:22:07;101158.13;;;23.99;35.05
86120;BME280;76781;52.434;13.488;2024-02-21T13:24:33;101145.97;;;24.00;35.50
86120;BME280;76781;52.434;13.488;2024-02-21T13:26:59;101139.16;;;24.02;36.34
86120;BME280;76781;52.434;13.488;2024-02-21T13:29:24;101126.19;;;24.03;37.13
86120;BME280;76781;52.434;13.488;2024-02-21T13:31:50;101125.13;;;24.04;37.56
86120;BME280;76781;52.434;13.488;2024-02-21T13:34:15;101124.25;;;24.03;38.28
86120;BME280;76781;52.434;13.488;2024-02-21T13:36:42;101127.53;;;24.07;38.50
86120;BME280;76781;52.434;13.488;2024-02-21T13:39:07;101117.31;;;24.08;38.97
86120;BME280;76781;52.434;13.488;2024-02-21T13:41:34;101117.81;;;24.11;38.58
86120;BME280;76781;52.434;13.488;2024-02-21T13:44:00;101113.09;;;24.12;38.10
86120;BME280;76781;52.434;13.488;2024-02-21T13:46:29;101120.41;;;24.13;38.15
86120;BME280;76781;52.434;13.488;2024-02-21T13:49:02;101108.44;;;24.12;38.01
86120;BME280;76781;52.434;13.488;2024-02-21T13:51:29;101113.81;;;24.14;37.78
86120;BME280;76781;52.434;13.488;2024-02-21T13:53:55;101114.69;;;24.14;37.73
86120;BME280;76781;52.434;13.488;2024-02-21T13:56:20;101100.47;;;24.09;37.44
86120;BME280;76781;52.434;13.488;2024-02-21T13:58:46;101109.31;;;24.13;37.32
86120;BME280;76781;52.434;13.488;2024-02-21T14:01:11;101106.88;;;24.10;37.43
86120;BME280;76781;52.434;13.488;2024-02-21T14:03:36;101100.28;;;24.11;37.28
86120;BME280;76781;52.434;13.488;2024-02-21T14:06:02;101098.75;;;24.08;37.37
86120;BME280;76781;52.434;13.488;2024-02-21T14:08:27;101097.88;;;23.99;37.38
86120;BME280;76781;52.434;13.488;2024-02-21T14:10:53;101099.09;;;24.05;36.73
86120;BME280;76781;52.434;13.488;2024-02-21T14:13:20;101096.31;;;24.05;36.70
86120;BME280;76781;52.434;13.488;2024-02-21T14:15:46;101098.41;;;24.03;36.72
86120;BME280;76781;52.434;13.488;2024-02-21T14:18:12;101081.38;;;23.98;37.01
86120;BME280;76781;52.434;13.488;2024-02-21T14:20:39;101079.31;;;24.00;37.02
86120;BME280;76781;52.434;13.488;2024-02-21T14:23:04;101094.94;;;24.01;36.92
86120;BME280;76781;52.434;13.488;2024-02-21T14:25:30;101085.72;;;24.00;36.77
86120;BME280;76781;52.434;13.488;2024-02-21T14:27:55;101079.31;;;24.00;36.94
86120;BME280;76781;52.434;13.488;2024-02-21T14:30:20;101088.69;;;23.99;36.90
86120;BME280;76781;52.434;13.488;2024-02-21T14:32:46;101089.56;;;23.99;36.80
86120;BME280;76781;52.434;13.488;2024-02-21T14:35:11;101088.00;;;23.97;37.18
86120;BME280;76781;52.434;13.488;2024-02-21T14:37:36;101087.66;;;23.92;36.98
86120;BME280;76781;52.434;13.488;2024-02-21T14:40:02;101085.06;;;23.90;36.86
86120;BME280;76781;52.434;13.488;2024-02-21T14:42:28;101075.88;;;23.90;36.57
86120;BME280;76781;52.434;13.488;2024-02-21T14:44:54;101065.44;;;23.92;36.41
86120;BME280;76781;52.434;13.488;2024-02-21T14:47:30;101068.94;;;23.94;36.57
86120;BME280;76781;52.434;13.488;2024-02-21T14:49:55;101065.97;;;23.95;36.65
86120;BME280;76781;52.434;13.488;2024-02-21T14:52:21;101065.25;;;23.93;36.48
86120;BME280;76781;52.434;13.488;2024-02-21T14:54:46;101064.41;;;23.93;36.68
86120;BME280;76781;52.434;13.488;2024-02-21T14:57:17;101059.56;;;23.95;36.76
86120;BME280;76781;52.434;13.488;2024-02-21T14:59:43;101060.41;;;23.95;36.79
86120;BME280;76781;52.434;13.488;2024-02-21T15:02:08;101050.16;;;23.96;36.78
86120;BME280;76781;52.434;13.488;2024-02-21T15:04:34;101050.50;;;23.93;37.11
86120;BME280;76781;52.434;13.488;2024-02-21T15:07:01;101041.84;;;23.96;36.87
86120;BME280;76781;52.434;13.488;2024-02-21T15:09:28;101038.00;;;23.97;36.85
86120;BME280;76781;52.434;13.488;2024-02-21T15:11:53;101025.72;;;23.91;36.81
86120;BME280;76781;52.434;13.488;2024-02-21T15:14:22;101024.31;;;23.95;36.95
86120;BME280;76781;52.434;13.488;2024-02-21T15:16:47;101029.88;;;23.95;36.92
86120;BME280;76781;52.434;13.488;2024-02-21T15:19:12;101016.53;;;23.91;36.98
86120;BME280;76781;52.434;13.488;2024-02-21T15:21:38;101018.06;;;23.93;37.21
86120;BME280;76781;52.434;13.488;2024-02-21T15:24:03;101010.97;;;23.91;36.90
86120;BME280;76781;52.434;13.488;2024-02-21T15:26:29;101009.25;;;23.90;37.04
86120;BME280;76781;52.434;13.488;2024-02-21T15:28:55;100996.06;;;23.84;36.95
86120;BME280;76781;52.434;13.488;2024-02-21T15:31:21;100994.69;;;23.79;36.77
86120;BME280;76781;52.434;13.488;2024-02-21T15:33:49;100982.91;;;23.77;36.59
86120;BME280;76781;52.434;13.488;2024-02-21T15:36:15;100986.03;;;23.74;36.63
86120;BME280;76781;52.434;13.488;2024-02-21T15:38:41;100980.84;;;23.71;36.37
